Time;durP1;ratioP1;P1;durP2;ratioP2;P2;SDS_P1;SDS_P2;PMS_P1;PMS_P2;Temp;Humidity;BMP_temperature;BMP_pressure;BME280_temperature;BME280_humidity;BME280_pressure;Samples;Min_cycle;Max_cycle;Signal;HPM_P1;HPM_P2
2023/09/22 00:01:16;;;;;;;1.67;0.82;;;;;;;;;;5111749;28;20043;-82
2023/09/22 00:03:42;;;;;;;1.55;0.60;;;;;;;;;;5094788;28;20084;-82
2023/09/22 00:06:09;;;;;;;0.75;0.50;;;;;;;;;;5094875;28;20085;-82
2023/09/22 00:08:35;;;;;;;1.30;0.70;;;;;;;;;;5093805;28;20548;-81
2023/09/22 00:11:05;;;;;;;0.63;0.63;;;;;;;;;;5094776;28;20024;-81
2023/09/22 00:13:31;;;;;;;1.80;0.65;;;;;;;;;;5110734;28;20024;-82
2023/09/22 00:15:57;;;;;;;1.45;0.70;;;;;;;;;;5110625;28;20024;-82
2023/09/22 00:18:23;;;;;;;1.85;0.85;;;;;;;;;;5110048;28;20052;-82
2023/09/22 00:20:50;;;;;;;0.60;0.60;;;;;;;;;;5110614;28;20020;-83
2023/09/22 00:23:16;;;;;;;0.60;0.60;;;;;;;;;;5109939;28;20123;-82
2023/09/22 00:25:42;;;;;;;0.75;0.60;;;;;;;;;;5110089;28;20028;-81
2023/09/22 00:28:09;;;;;;;0.50;0.50;;;;;;;;;;5094888;28;20101;-81
2023/09/22 00:30:35;;;;;;;2.67;0.50;;;;;;;;;;5110451;28;20017;-82
2023/09/22 00:33:02;;;;;;;0.93;0.70;;;;;;;;;;5109994;28;20424;-83
2023/09/22 00:35:29;;;;;;;0.70;0.70;;;;;;;;;;5111151;28;20394;-82
2023/09/22 00:37:55;;;;;;;0.75;0.60;;;;;;;;;;5110124;28;20016;-81
2023/09/22 00:40:21;;;;;;;0.50;0.50;;;;;;;;;;5110225;28;20027;-82
2023/09/22 00:42:47;;;;;;;0.57;0.52;;;;;;;;;;5110023;28;20032;-82
2023/09/22 00:45:16;;;;;;;0.93;0.60;;;;;;;;;;5109768;28;20111;-82
2023/09/22 00:47:42;;;;;;;0.50;0.50;;;;;;;;;;5110075;28;20016;-81
2023/09/22 00:50:09;;;;;;;1.08;0.47;;;;;;;;;;5109973;28;20016;-82
2023/09/22 00:52:36;;;;;;;2.50;0.55;;;;;;;;;;5109575;28;20028;-80
2023/09/22 00:55:02;;;;;;;1.52;0.90;;;;;;;;;;5109893;28;20017;-82
2023/09/22 00:57:29;;;;;;;0.85;0.57;;;;;;;;;;5109940;28;20024;-81
2023/09/22 00:59:55;;;;;;;3.15;0.63;;;;;;;;;;5109927;28;20073;-81
2023/09/22 01:02:22;;;;;;;2.20;0.73;;;;;;;;;;5094582;28;20024;-80
2023/09/22 01:04:48;;;;;;;0.77;0.70;;;;;;;;;;5109828;28;20024;-81
2023/09/22 01:07:15;;;;;;;0.68;0.60;;;;;;;;;;5109586;28;20016;-82
2023/09/22 01:09:41;;;;;;;0.80;0.63;;;;;;;;;;5109693;28;20114;-81
2023/09/22 01:12:09;;;;;;;0.77;0.63;;;;;;;;;;5109862;28;20115;-82
2023/09/22 01:14:35;;;;;;;1.90;0.70;;;;;;;;;;5109446;28;20119;-82
2023/09/22 01:17:02;;;;;;;0.77;0.60;;;;;;;;;;5109231;28;20031;-81
2023/09/22 01:19:28;;;;;;;0.50;0.50;;;;;;;;;;5109519;28;20044;-82
2023/09/22 01:21:54;;;;;;;0.90;0.60;;;;;;;;;;5110357;28;20024;-78
2023/09/22 01:24:20;;;;;;;0.93;0.70;;;;;;;;;;5133902;28;20050;-79
2023/09/22 01:26:46;;;;;;;0.68;0.60;;;;;;;;;;5117668;28;20052;-82
2023/09/22 01:29:12;;;;;;;0.50;0.50;;;;;;;;;;5110851;28;20020;-82
2023/09/22 01:31:38;;;;;;;1.60;0.63;;;;;;;;;;5094334;28;20024;-80
2023/09/22 01:34:04;;;;;;;0.60;0.60;;;;;;;;;;5109229;28;20028;-81
2023/09/22 01:36:31;;;;;;;1.38;0.80;;;;;;;;;;5113252;28;20032;-81
2023/09/22 01:39:01;;;;;;;0.75;0.65;;;;;;;;;;5113532;28;20024;-81
2023/09/22 01:41:29;;;;;;;1.27;0.63;;;;;;;;;;5113736;28;20024;-81
2023/09/22 01:43:55;;;;;;;1.83;0.73;;;;;;;;;;5113475;28;20499;-81
2023/09/22 01:46:21;;;;;;;1.15;0.77;;;;;;;;;;5098047;28;20028;-82
2023/09/22 01:48:47;;;;;;;1.20;0.70;;;;;;;;;;5113451;28;20016;-81
2023/09/22 01:51:14;;;;;;;1.70;1.05;;;;;;;;;;5114226;28;20044;-82
2023/09/22 01:53:40;;;;;;;0.73;0.60;;;;;;;;;;5113229;28;20032;-82
2023/09/22 01:56:07;;;;;;;4.30;0.70;;;;;;;;;;5112816;28;20061;-79
2023/09/22 01:58:33;;;;;;;0.82;0.60;;;;;;;;;;5113138;28;20134;-81
2023/09/22 02:00:59;;;;;;;1.50;0.70;;;;;;;;;;5112794;28;20024;-80
2023/09/22 02:03:25;;;;;;;0.63;0.60;;;;;;;;;;5112596;28;20028;-80
2023/09/22 02:05:51;;;;;;;0.60;0.60;;;;;;;;;;5112748;28;20028;-79
2023/09/22 02:08:17;;;;;;;0.82;0.70;;;;;;;;;;5112878;28;20116;-81
2023/09/22 02:10:44;;;;;;;2.67;0.70;;;;;;;;;;5112648;28;20043;-79
2023/09/22 02:13:10;;;;;;;0.60;0.60;;;;;;;;;;5112789;28;20414;-80
2023/09/22 02:15:36;;;;;;;0.98;0.85;;;;;;;;;;5112816;28;20487;-79
2023/09/22 02:18:02;;;;;;;1.73;0.60;;;;;;;;;;5112582;28;20056;-81
2023/09/22 02:20:29;;;;;;;1.38;0.75;;;;;;;;;;5097526;28;20027;-80
2023/09/22 02:22:56;;;;;;;0.50;0.50;;;;;;;;;;5112308;28;20115;-80
2023/09/22 02:25:23;;;;;;;1.50;1.20;;;;;;;;;;5112536;28;20020;-79
2023/09/22 02:27:50;;;;;;;0.63;0.60;;;;;;;;;;5112974;28;20379;-80
2023/09/22 02:30:19;;;;;;;1.40;0.90;;;;;;;;;;5112143;28;20031;-80
2023/09/22 02:32:50;;;;;;;2.97;0.82;;;;;;;;;;5096831;28;20031;-81
2023/09/22 02:35:21;;;;;;;1.35;0.77;;;;;;;;;;5112437;28;20032;-80
2023/09/22 02:37:47;;;;;;;0.43;0.43;;;;;;;;;;5112626;28;20392;-80
2023/09/22 02:40:14;;;;;;;0.95;0.70;;;;;;;;;;5112765;28;20024;-80
2023/09/22 02:42:41;;;;;;;2.42;1.10;;;;;;;;;;5096575;28;20032;-79
2023/09/22 02:45:09;;;;;;;0.95;0.70;;;;;;;;;;5111782;28;20121;-79
2023/09/22 02:47:35;;;;;;;1.83;0.80;;;;;;;;;;5112653;28;20016;-79
2023/09/22 02:50:01;;;;;;;1.10;0.60;;;;;;;;;;5112767;28;20020;-79
2023/09/22 02:52:27;;;;;;;0.93;0.63;;;;;;;;;;5111766;28;20059;-79
2023/09/22 02:54:54;;;;;;;0.82;0.60;;;;;;;;;;5096208;28;20390;-80
2023/09/22 02:57:20;;;;;;;1.08;0.80;;;;;;;;;;5112100;28;20024;-80
2023/09/22 02:59:47;;;;;;;1.20;0.75;;;;;;;;;;5095616;28;20012;-80
2023/09/22 03:02:13;;;;;;;2.92;0.63;;;;;;;;;;5095881;28;20063;-80
2023/09/22 03:04:40;;;;;;;2.33;0.80;;;487.30;2380.80;;;;;;5111543;28;20036;-79
2023/09/22 03:07:07;;;;;;;0.60;0.60;;;487.20;2380.80;;;;;;5096001;28;20290;-80
2023/09/22 03:09:33;;;;;;;0.60;0.60;;;487.10;2380.80;;;;;;5111819;28;20024;-81
2023/09/22 03:11:59;;;;;;;1.23;0.80;;;487.00;2380.80;;;;;;5111432;28;20035;-79
2023/09/22 03:14:25;;;;;;;6.20;1.00;;;;;;;;;;5111383;28;20028;-79
2023/09/22 03:16:53;;;;;;;2.20;1.02;;;;;;;;;;5096164;28;20177;-79
2023/09/22 03:19:19;;;;;;;0.60;0.60;;;;;;;;;;5111242;28;20480;-79
2023/09/22 03:21:45;;;;;;;0.80;0.60;;;;;;;;;;5112112;28;20115;-79
2023/09/22 03:24:11;;;;;;;0.68;0.60;;;;;;;;;;5111369;28;20024;-80
2023/09/22 03:26:38;;;;;;;2.72;1.00;;;;;;;;;;5111166;28;20028;-79
2023/09/22 03:29:04;;;;;;;2.17;1.08;;;;;;;;;;5095664;28;20103;-80
2023/09/22 03:31:30;;;;;;;1.80;1.02;;;;;;;;;;5095542;28;20503;-80
2023/09/22 03:33:56;;;;;;;1.15;0.70;;;;;;;;;;5095240;28;20472;-80
2023/09/22 03:36:24;;;;;;;2.05;0.90;;;;;;;;;;5111242;28;20028;-79
2023/09/22 03:38:51;;;;;;;1.75;0.85;;;;;;;;;;5111902;28;20348;-80
2023/09/22 03:41:18;;;;;;;1.73;0.77;;;;;;;;;;5110911;28;20028;-79
2023/09/22 03:43:45;;;;;;;2.83;0.88;;;;;;;;;;5095061;28;20059;-81
2023/09/22 03:46:11;;;;;;;4.65;1.15;;;;;;;;;;5110978;28;20020;-79
2023/09/22 03:48:38;;;;;;;1.83;0.80;;;;;;;;;;5110645;28;20027;-79
2023/09/22 03:51:05;;;;;;;1.55;1.00;;;;;;;;;;5110998;28;20023;-80
2023/09/22 03:53:31;;;;;;;1.67;1.00;;;;;;;;;;5110865;28;20089;-79
2023/09/22 03:55:57;;;;;;;1.75;1.00;;;;;;;;;;5110459;28;20484;-80
2023/09/22 03:58:23;;;;;;;3.03;1.10;;;;;;;;;;5109754;28;20050;-80
2023/09/22 04:00:53;;;;;;;2.88;0.80;;;;;;;;;;5110409;28;20444;-80
2023/09/22 04:03:19;;;;;;;2.15;1.00;;;;;;;;;;5110572;28;20024;-80
2023/09/22 04:05:45;;;;;;;3.03;1.10;;;;;;;;;;5110246;28;20024;-79
2023/09/22 04:08:11;;;;;;;1.65;0.95;;;;;;;;;;5110307;28;20111;-79
2023/09/22 04:10:37;;;;;;;1.02;0.82;;;;;;;;;;5110459;28;20028;-79
2023/09/22 04:13:04;;;;;;;1.23;0.70;;;;;;;;;;5110743;28;20406;-78
2023/09/22 04:15:30;;;;;;;1.08;0.70;;;;;;;;;;5110031;28;20077;-79
2023/09/22 04:17:57;;;;;;;2.00;0.90;;;;;;;;;;5110131;28;20026;-78
2023/09/22 04:20:29;;;;;;;2.85;1.05;;;;;;;;;;5110320;28;20024;-79
2023/09/22 04:23:04;;;;;;;1.17;0.75;;;;;;;;;;5094367;28;20505;-78
2023/09/22 04:25:34;;;;;;;1.45;1.00;;;;;;;;;;5110194;28;20070;-78
2023/09/22 04:28:17;;;;;;;1.00;0.88;;;;;;;;;;5110147;28;20468;-81
2023/09/22 04:30:44;;;;;;;2.10;1.23;;;;;;;;;;5109902;28;20125;-79
2023/09/22 04:33:10;;;;;;;1.30;0.73;;;;;;;;;;5094484;28;20024;-79
2023/09/22 04:35:37;;;;;;;1.40;0.90;;;;;;;;;;5110236;28;20491;-81
2023/09/22 04:38:08;;;;;;;4.30;0.98;;;;;;;;;;5093744;28;20022;-77
2023/09/22 04:40:36;;;;;;;2.60;0.90;;;;;;;;;;5094450;28;20023;-79
2023/09/22 04:43:05;;;;;;;2.80;1.10;;;;;;;;;;5110492;28;20383;-78
2023/09/22 04:45:31;;;;;;;3.25;1.30;;;;;;;;;;5110055;28;20043;-77
2023/09/22 04:47:57;;;;;;;2.38;0.82;;;;;;;;;;5110803;28;20025;-78
2023/09/22 04:50:24;;;;;;;1.88;1.00;;;;;;;;;;5109466;28;20486;-78
2023/09/22 04:52:50;;;;;;;2.10;1.17;;;;;;;;;;5109933;28;20067;-78
2023/09/22 04:55:20;;;;;;;0.90;0.85;;;;;;;;;;5110368;28;20024;-78
2023/09/22 04:57:47;;;;;;;1.95;1.00;;;;;;;;;;5093858;28;20016;-79
2023/09/22 05:00:15;;;;;;;1.45;0.90;;;;;;;;;;5110193;28;20418;-78
2023/09/22 05:02:43;;;;;;;1.40;0.80;;;;;;;;;;5109910;28;20024;-79
2023/09/22 05:05:10;;;;;;;3.42;1.23;;;;;;;;;;5109590;28;20020;-79
2023/09/22 05:07:36;;;;;;;2.05;1.23;;;;;;;;;;5094342;28;20016;-79
2023/09/22 05:10:02;;;;;;;3.53;1.10;;;;;;;;;;5123436;27;20080;-80
2023/09/22 05:12:30;;;;;;;2.72;1.10;;;;;;;;;;5134986;27;20062;-79
2023/09/22 05:14:57;;;;;;;2.65;1.10;;;;;;;;;;5115878;28;20028;-82
2023/09/22 05:17:24;;;;;;;1.88;1.00;;;;;;;;;;5098344;28;20099;-79
2023/09/22 05:19:50;;;;;;;2.00;1.00;;;;;;;;;;5110816;28;20101;-80
2023/09/22 05:22:20;;;;;;;1.95;1.13;;;;;;;;;;5109582;28;20035;-80
2023/09/22 05:24:47;;;;;;;2.05;1.15;;;;;;;;;;5109811;28;20032;-79
2023/09/22 05:27:14;;;;;;;1.60;1.08;;;;;;;;;;5109553;28;20420;-79
2023/09/22 05:29:41;;;;;;;2.78;1.38;;;;;;;;;;5109454;28;20024;-79
2023/09/22 05:32:11;;;;;;;4.70;1.52;;;;;;;;;;5109191;28;20025;-79
2023/09/22 05:34:39;;;;;;;3.08;1.45;;;;;;;;;;5109450;28;20028;-79
2023/09/22 05:37:06;;;;;;;3.45;1.50;;;;;;;;;;5109540;28;20024;-79
2023/09/22 05:39:33;;;;;;;2.15;1.20;;;;;;;;;;5109552;28;20080;-80
2023/09/22 05:41:59;;;;;;;1.95;1.35;;;;;;;;;;5109477;28;20516;-80
2023/09/22 05:44:25;;;;;;;3.08;1.05;;;;;;;;;;5093680;28;20028;-80
2023/09/22 05:46:52;;;;;;;2.78;1.38;;;;;;;;;;5109442;28;20020;-80
2023/09/22 05:49:18;;;;;;;2.95;1.00;;;;;;;;;;5109335;28;20023;-80
2023/09/22 05:51:44;;;;;;;1.80;1.13;;;;;;;;;;5093600;28;20021;-80
2023/09/22 05:54:10;;;;;;;4.38;1.20;;;;;;;;;;5093011;28;20031;-80
2023/09/22 05:56:38;;;;;;;3.25;1.63;;;;;;;;;;5109369;28;20021;-80
2023/09/22 05:59:06;;;;;;;2.20;1.25;;;;;;;;;;5109123;28;20074;-80
2023/09/22 06:01:36;;;;;;;2.38;1.23;;;;;;;;;;5108888;28;20118;-81
2023/09/22 06:04:05;;;;;;;1.58;0.95;;;;;;;;;;5109031;28;20059;-82
2023/09/22 06:06:32;;;;;;;2.22;1.05;;;;;;;;;;5109398;28;20529;-80
2023/09/22 06:08:59;;;;;;;2.80;1.13;;;;;;;;;;5108780;28;20028;-79
2023/09/22 06:11:26;;;;;;;1.67;1.00;;;;;;;;;;5109023;28;20051;-80
2023/09/22 06:13:52;;;;;;;2.55;1.35;;;;;;;;;;5108739;28;20024;-79
2023/09/22 06:16:18;;;;;;;2.55;1.38;;;;;;;;;;5109525;28;20070;-80
2023/09/22 06:18:44;;;;;;;2.20;1.38;;;;;;;;;;5109060;28;20165;-81
2023/09/22 06:21:11;;;;;;;2.42;1.08;;;;;;;;;;5109982;28;20093;-79
2023/09/22 06:23:40;;;;;;;2.08;0.90;;;;;;;;;;5112792;28;20028;-79
2023/09/22 06:26:10;;;;;;;1.58;1.10;;;;;;;;;;5112597;28;20069;-81
2023/09/22 06:28:41;;;;;;;6.45;1.20;;;;;;;;;;5096465;28;20133;-80
2023/09/22 06:31:07;;;;;;;1.58;0.90;;;;;;;;;;5112474;28;20429;-78
2023/09/22 06:33:33;;;;;;;1.55;0.93;;;;;;;;;;5097025;28;20035;-81
2023/09/22 06:36:04;;;;;;;3.08;1.30;;;;;;;;;;5112195;28;20132;-80
2023/09/22 06:38:33;;;;;;;1.95;1.00;;;;;;;;;;5112557;28;20093;-81
2023/09/22 06:41:00;;;;;;;2.83;0.95;;;;;;;;;;5112463;28;20111;-80
2023/09/22 06:43:27;;;;;;;1.77;1.00;;;;;;;;;;5096155;28;20024;-80
2023/09/22 06:45:54;;;;;;;1.05;0.82;;;;;;;;;;5112277;28;20456;-81
2023/09/22 06:48:27;;;;;;;1.77;1.13;;;;;;;;;;5112149;28;20024;-80
2023/09/22 06:50:57;;;;;;;2.88;0.93;;;;;;;;;;5111914;28;20096;-80
2023/09/22 06:53:24;;;;;;;1.77;1.20;;;;;;;;;;5112313;28;20028;-80
2023/09/22 06:55:50;;;;;;;5.78;1.33;;;;;;;;;;5112082;28;20028;-80
2023/09/22 06:58:16;;;;;;;2.60;1.10;;;;;;;;;;5096252;28;20012;-81
2023/09/22 07:00:43;;;;;;;2.80;1.45;;;;;;;;;;5112226;28;20091;-80
2023/09/22 07:03:09;;;;;;;2.00;0.88;;;;;;;;;;5111444;28;20024;-80
2023/09/22 07:05:35;;;;;;;2.67;1.10;;;;;;;;;;5111872;28;20077;-79
2023/09/22 07:08:03;;;;;;;2.63;1.17;;;;;;;;;;5096005;28;20027;-80
2023/09/22 07:10:32;;;;;;;3.00;1.30;;;;;;;;;;5111391;28;20020;-79
2023/09/22 07:12:58;;;;;;;2.92;1.23;;;;;;;;;;5111712;28;20028;-78
2023/09/22 07:15:25;;;;;;;3.85;1.30;;;;;;;;;;5111562;28;20523;-77
2023/09/22 07:17:51;;;;;;;1.23;0.90;;;;;;;;;;5111011;28;20115;-79
2023/09/22 07:20:17;;;;;;;4.03;1.60;;;;;;;;;;5096203;28;20044;-80
2023/09/22 07:22:44;;;;;;;2.65;1.08;;;;;;;;;;5111463;28;20459;-80
2023/09/22 07:25:11;;;;;;;3.45;1.25;;;;;;;;;;5111239;28;20040;-79
2023/09/22 07:27:39;;;;;;;2.60;1.42;;;;;;;;;;5111326;28;20020;-80
2023/09/22 07:30:09;;;;;;;3.50;1.52;;;;;;;;;;5111333;28;20024;-80
2023/09/22 07:32:36;;;;;;;2.65;1.27;;;;;;;;;;5109858;28;20016;-78
2023/09/22 07:35:02;;;;;;;3.67;1.23;;;;;;;;;;5095207;28;20103;-81
2023/09/22 07:37:30;;;;;;;3.20;1.35;;;;;;;;;;5095494;28;20016;-79
2023/09/22 07:39:56;;;;;;;3.10;1.50;;;;;;;;;;5095201;28;20031;-79
2023/09/22 07:42:22;;;;;;;2.78;1.30;;;;;;;;;;5111540;28;20059;-79
2023/09/22 07:44:48;;;;;;;3.40;1.17;;;;;;;;;;5110611;28;20039;-79
2023/09/22 07:47:15;;;;;;;3.28;1.50;;;;;;;;;;5110951;28;20024;-78
2023/09/22 07:49:42;;;;;;;3.67;1.48;;;;;;;;;;5110965;28;20375;-79
2023/09/22 07:52:11;;;;;;;2.47;1.38;;;;;;;;;;5110413;28;20023;-78
2023/09/22 07:54:38;;;;;;;2.85;1.35;;;;;;;;;;5111189;28;20020;-78
2023/09/22 07:57:04;;;;;;;1.88;1.02;;;;;;;;;;5110961;28;20103;-79
2023/09/22 07:59:31;;;;;;;2.42;1.10;;;;;;;;;;5110503;28;20024;-79
2023/09/22 08:02:00;;;;;;;4.72;1.52;;;;;;;;;;5110999;28;20016;-80
2023/09/22 08:04:26;;;;;;;3.85;1.30;;;;;;;;;;5110607;28;20032;-81
2023/09/22 08:06:53;;;;;;;2.58;1.23;;;;;;;;;;5110393;28;20024;-79
2023/09/22 08:09:20;;;;;;;2.25;1.30;;;;;;;;;;5110973;28;20066;-81
2023/09/22 08:11:46;;;;;;;2.78;1.10;;;;;;;;;;5111656;28;20024;-80
2023/09/22 08:14:13;;;;;;;2.63;1.35;;;;;;;;;;5110225;28;20413;-79
2023/09/22 08:16:39;;;;;;;2.13;1.08;;;;;;;;;;5110446;28;20369;-80
2023/09/22 08:19:11;;;;;;;10.75;1.30;;;;;;;;;;5094815;28;20075;-80
2023/09/22 08:21:40;;;;;;;2.10;1.10;;;;;;;;;;5110139;28;20020;-80
2023/09/22 08:24:07;;;;;;;6.38;1.42;;;;;;;;;;5110250;28;20075;-80
2023/09/22 08:26:34;;;;;;;2.50;1.27;;;;;;;;;;5110322;28;20111;-79
2023/09/22 08:29:00;;;;;;;4.25;1.40;;;;;;;;;;5109906;28;20016;-80
2023/09/22 08:31:29;;;;;;;2.50;1.20;;;;;;;;;;5110012;28;20020;-78
2023/09/22 08:33:55;;;;;;;1.75;1.00;;;;;;;;;;5109803;28;20035;-79
2023/09/22 08:36:21;;;;;;;6.63;1.65;;;;;;;;;;5110086;28;20024;-80
2023/09/22 08:38:47;;;;;;;2.20;1.13;;;;;;;;;;5094453;28;20024;-79
2023/09/22 08:41:13;;;;;;;2.97;1.00;;;;;;;;;;5109666;28;20024;-81
2023/09/22 08:43:40;;;;;;;5.32;1.75;;;;;;;;;;5110059;28;20028;-81
2023/09/22 08:46:06;;;;;;;2.85;1.45;;;;;;;;;;5110359;28;20055;-83
2023/09/22 08:48:33;;;;;;;1.58;1.08;;;;;;;;;;5109985;28;20521;-82
2023/09/22 08:51:00;;;;;;;3.50;1.80;;;;;;;;;;5110553;28;20020;-81
2023/09/22 08:53:29;;;;;;;5.10;1.30;;;;;;;;;;5110284;28;20378;-83
2023/09/22 08:55:56;;;;;;;4.15;1.30;;;;;;;;;;5094438;28;20084;-82
2023/09/22 08:58:22;;;;;;;4.25;1.55;;;;;;;;;;5110470;28;20473;-84
2023/09/22 09:00:54;;;;;;;3.47;1.63;;;615.30;2432.00;;;;;;5110408;28;20020;-83
2023/09/22 09:03:20;;;;;;;3.33;1.15;;;;;;;;;;5093494;28;20028;-86
2023/09/22 09:05:47;;;;;;;4.00;1.92;;;;;;;;;;5092845;28;20464;-84
2023/09/22 09:08:17;;;;;;;5.25;1.48;;;;;;;;;;5094095;28;20157;-84
2023/09/22 09:10:45;;;;;;;3.83;1.27;;;;;;;;;;5082541;28;20036;-86
2023/09/22 09:13:18;;;;;;;5.55;1.33;;;;;;;;;;5098233;28;20040;-84
2023/09/22 09:15:57;;;;;;;5.20;1.73;;;;;;;;;;5103286;28;20028;-82
2023/09/22 09:18:24;;;;;;;3.65;1.42;;;;;;;;;;5110773;28;20055;-82
2023/09/22 09:21:14;;;;;;;3.08;1.50;;;;;;;;;;5098655;28;20031;-82
2023/09/22 09:23:56;;;;;;;3.05;1.50;;;;;;;;;;5092802;28;20126;-82
2023/09/22 09:26:26;;;;;;;1.63;1.08;;;;;;;;;;5093101;28;20021;-83
2023/09/22 09:28:53;;;;;;;3.15;1.33;;;666.00;2432.00;;;;;;5093458;28;20149;-83
2023/09/22 09:31:20;;;;;;;2.92;1.50;;;665.90;2432.00;;;;;;5092639;28;20021;-82
2023/09/22 09:33:51;;;;;;;2.88;1.23;;;665.90;2432.00;;;;;;5092689;28;20024;-84
2023/09/22 09:36:17;;;;;;;2.10;1.03;;;665.90;2432.00;;;;;;5093370;28;20026;-85
2023/09/22 09:38:43;;;;;;;3.20;1.38;;;666.00;2432.00;;;;;;5092639;28;20028;-82
2023/09/22 09:41:10;;;;;;;1.88;1.10;;;666.00;2432.00;;;;;;5092549;28;20024;-83
2023/09/22 09:43:37;;;;;;;3.28;1.50;;;666.20;2432.00;;;;;;5091824;28;20036;-84
2023/09/22 09:46:05;;;;;;;2.88;1.20;;;;;;;;;;5093059;28;20031;-86
2023/09/22 09:48:37;;;;;;;5.57;1.40;;;;;;;;;;5093909;28;20031;-84
2023/09/22 09:51:04;;;;;;;2.00;0.98;;;;;;;;;;5092574;28;20459;-84
2023/09/22 09:53:57;;;;;;;2.17;1.00;;;;;;;;;;5093130;28;20059;-83
2023/09/22 09:56:26;;;;;;;2.58;1.30;;;;;;;;;;5093436;28;20028;-83
2023/09/22 09:58:53;;;;;;;3.38;1.33;;;;;;;;;;5096361;28;20021;-83
2023/09/22 10:01:19;;;;;;;3.50;1.27;;;;;;;;;;5096383;28;20028;-82
2023/09/22 10:03:46;;;;;;;2.25;0.93;;;;;;;;;;5096639;28;20028;-82
2023/09/22 10:06:13;;;;;;;2.75;1.33;;;;;;;;;;5097327;28;20434;-83
2023/09/22 10:08:39;;;;;;;5.90;1.30;;;;;;;;;;5095983;28;20107;-82
2023/09/22 10:11:10;;;;;;;3.00;1.50;;;;;;;;;;5097123;28;20024;-81
2023/09/22 10:13:36;;;;;;;2.03;1.20;;;;;;;;;;5096106;28;20024;-82
2023/09/22 10:16:03;;;;;;;2.55;1.08;;;;;;;;;;5096194;28;20111;-82
2023/09/22 10:18:47;;;;;;;6.00;1.58;;;;;;;;;;5095929;28;20468;-82
2023/09/22 10:21:29;;;;;;;2.63;1.02;;;;;;;;;;5096205;28;20048;-82
2023/09/22 10:24:14;;;;;;;6.00;1.40;;;;;;;;;;5096059;28;20028;-82
2023/09/22 10:27:07;;;;;;;4.18;1.27;;;;;;;;;;5095707;28;20388;-84
2023/09/22 10:29:36;;;;;;;3.42;1.40;;;;;;;;;;5096785;28;20333;-83
2023/09/22 10:32:18;;;;;;;4.07;1.23;;;;;;;;;;5095914;28;20034;-81
2023/09/22 10:34:47;;;;;;;2.42;1.05;;;;;;;;;;5096371;28;20031;-81
2023/09/22 10:37:13;;;;;;;2.28;1.27;;;;;;;;;;5095900;28;20101;-81
2023/09/22 10:39:54;;;;;;;2.75;1.50;;;;;;;;;;5095842;28;20081;-83
2023/09/22 10:42:21;;;;;;;5.22;1.20;;;;;;;;;;5095947;28;20118;-82
2023/09/22 10:45:01;;;;;;;4.15;1.23;;;;;;;;;;5096926;28;20028;-82
2023/09/22 10:47:37;;;;;;;3.00;1.48;;;;;;;;;;5095093;28;20107;-81
2023/09/22 10:50:21;;;;;;;2.10;1.13;;;;;;;;;;5095593;28;20153;-82
2023/09/22 10:52:55;;;;;;;3.30;1.23;;;;;;;;;;5095743;28;20383;-82
2023/09/22 10:55:31;;;;;;;4.15;1.27;;;;;;;;;;5096421;28;20031;-82
2023/09/22 10:57:57;;;;;;;4.28;1.33;;;;;;;;;;5096877;28;20028;-83
2023/09/22 11:00:25;;;;;;;4.38;1.45;;;;;;;;;;5095823;28;20024;-83
2023/09/22 11:02:52;;;;;;;4.70;1.70;;;;;;;;;;5095039;28;20119;-83
2023/09/22 11:05:19;;;;;;;2.00;1.10;;;;;;;;;;5095229;28;20020;-83
2023/09/22 11:07:46;;;;;;;3.35;1.48;;;;;;;;;;5095443;28;20034;-82
2023/09/22 11:10:19;;;;;;;3.63;1.38;;;;;;;;;;5095541;28;20073;-83
2023/09/22 11:12:54;;;;;;;4.50;1.23;;;;;;;;;;5095060;28;20020;-81
2023/09/22 11:15:21;;;;;;;2.65;1.48;;;;;;;;;;5094802;28;20024;-82
2023/09/22 11:17:47;;;;;;;2.65;1.35;;;;;;;;;;5094685;28;20030;-82
2023/09/22 11:20:26;;;;;;;3.80;1.58;;;;;;;;;;5095583;28;20112;-82
2023/09/22 11:22:55;;;;;;;3.28;1.30;;;;;;;;;;5094715;28;20020;-82
2023/09/22 11:25:22;;;;;;;4.40;1.20;;;;;;;;;;5094891;28;20454;-82
2023/09/22 11:27:49;;;;;;;2.90;1.15;;;;;;;;;;5094830;28;20020;-82
2023/09/22 11:30:16;;;;;;;4.40;1.38;;;;;;;;;;5094531;28;20375;-81
2023/09/22 11:32:46;;;;;;;3.30;1.27;;;;;;;;;;5094539;28;20440;-82
2023/09/22 11:35:29;;;;;;;2.85;1.20;;;;;;;;;;5094601;28;20024;-82
2023/09/22 11:37:55;;;;;;;3.85;1.50;;;;;;;;;;5094278;28;20135;-83
2023/09/22 11:40:22;;;;;;;2.75;1.50;;;;;;;;;;5094611;28;20035;-83
2023/09/22 11:42:49;;;;;;;2.17;1.20;;;793.70;2329.60;;;;;;5095292;28;20019;-82
2023/09/22 11:45:25;;;;;;;2.25;1.00;;;;;;;;;;5094463;28;20050;-82
2023/09/22 11:48:03;;;;;;;2.58;1.00;;;;;;;;;;5094438;28;20032;-83
2023/09/22 11:50:30;;;;;;;3.38;1.40;;;;;;;;;;5094426;28;20028;-82
2023/09/22 11:53:28;;;;;;;6.82;1.17;;;;;;;;;;5095022;28;20039;-82
2023/09/22 11:55:55;;;;;;;5.60;1.40;;;;;;;;;;5076206;28;20032;-83
2023/09/22 11:58:21;;;;;;;5.55;1.40;;;;;;;;;;5076067;28;20107;-82
2023/09/22 12:00:48;;;;;;;3.50;1.13;;;;;;;;;;5093184;28;20035;-81
2023/09/22 12:03:15;;;;;;;4.40;1.23;;;;;;;;;;5075999;28;20024;-82
2023/09/22 12:05:41;;;;;;;4.00;1.98;;;;;;;;;;5076155;28;20034;-82
2023/09/22 12:08:08;;;;;;;2.90;1.20;;;;;;;;;;5076022;28;20066;-82
2023/09/22 12:10:35;;;;;;;2.30;1.17;;;;;;;;;;5095450;28;20024;-82
2023/09/22 12:13:01;;;;;;;2.58;0.95;;;;;;;;;;5075607;28;20081;-82
2023/09/22 12:15:27;;;;;;;4.47;1.42;;;;;;;;;;5077396;28;20540;-82
2023/09/22 12:17:53;;;;;;;2.72;1.10;;;;;;;;;;5075588;28;20119;-82
2023/09/22 12:20:19;;;;;;;2.90;1.08;;;;;;;;;;5077711;28;20392;-82
2023/09/22 12:22:46;;;;;;;5.95;1.58;;;;;;;;;;5078170;28;20422;-81
2023/09/22 12:25:13;;;;;;;2.65;1.30;;;;;;;;;;5077849;28;20028;-84
2023/09/22 12:27:39;;;;;;;3.22;1.00;;;845.10;2073.60;;;;;;5077603;28;20073;-81
2023/09/22 12:30:06;;;;;;;7.53;1.77;;;845.10;2073.60;;;;;;5078187;28;20027;-81
2023/09/22 12:32:32;;;;;;;4.00;1.40;;;845.30;2124.80;;;;;;5095909;28;20036;-83
2023/09/22 12:34:59;;;;;;;3.80;1.25;;;;;;;;;;5093825;28;20027;-82
2023/09/22 12:37:25;;;;;;;4.13;1.20;;;;;;;;;;5093409;28;20161;-81
2023/09/22 12:39:51;;;;;;;2.10;1.02;;;;;;;;;;5093030;28;20039;-81
2023/09/22 12:42:18;;;;;;;3.03;1.23;;;;;;;;;;5093320;28;20035;-81
2023/09/22 12:44:45;;;;;;;4.80;1.20;;;;;;;;;;5093982;28;20111;-81
2023/09/22 12:47:11;;;;;;;2.42;1.02;;;;;;;;;;5092574;28;20032;-82
2023/09/22 12:49:38;;;;;;;4.97;1.30;;;;;;;;;;5093060;28;20074;-82
2023/09/22 12:52:04;;;;;;;2.33;1.00;;;;;;;;;;5076718;28;20024;-81
2023/09/22 12:54:30;;;;;;;1.88;0.88;;;;;;;;;;5092640;28;20039;-82
2023/09/22 12:56:56;;;;;;;2.90;1.23;;;;;;;;;;5094354;28;20020;-81
2023/09/22 12:59:22;;;;;;;3.78;1.20;;;;;;;;;;5113534;28;20005;-80
2023/09/22 13:01:48;;;;;;;7.80;1.65;;;;;;;;;;5099928;28;20028;-81
2023/09/22 13:04:14;;;;;;;3.28;1.33;;;;;;;;;;5097107;28;20024;-80
2023/09/22 13:06:42;;;;;;;2.30;1.02;;;;;;;;;;5092623;28;20497;-81
2023/09/22 13:09:08;;;;;;;4.00;1.08;;;;;;;;;;5093520;28;20077;-81
2023/09/22 13:11:34;;;;;;;3.45;1.02;;;;;;;;;;5093875;28;20153;-81
2023/09/22 13:14:01;;;;;;;5.00;1.15;;;;;;;;;;5092271;28;20055;-81
2023/09/22 13:16:27;;;;;;;2.42;1.13;;;;;;;;;;5092688;28;20115;-81
2023/09/22 13:18:54;;;;;;;2.92;1.55;;;;;;;;;;5092654;28;20048;-81
2023/09/22 13:21:20;;;;;;;4.25;1.42;;;;;;;;;;5092294;28;20023;-81
2023/09/22 13:23:46;;;;;;;2.70;1.25;;;;;;;;;;5092585;28;20096;-80
2023/09/22 13:26:19;;;;;;;3.60;1.80;;;;;;;;;;5092588;28;20016;-81
2023/09/22 13:28:46;;;;;;;5.50;1.17;;;;;;;;;;5093503;28;20017;-81
2023/09/22 13:31:12;;;;;;;2.45;1.20;;;;;;;;;;5094066;28;20510;-81
2023/09/22 13:33:39;;;;;;;5.30;1.05;;;;;;;;;;5096657;28;20077;-81
2023/09/22 13:36:14;;;;;;;3.50;1.45;;;;;;;;;;5096369;28;20035;-81
2023/09/22 13:38:40;;;;;;;3.35;0.95;;;;;;;;;;5096293;28;20028;-82
2023/09/22 13:41:13;;;;;;;4.68;1.50;;;;;;;;;;5096584;28;20025;-81
2023/09/22 13:43:39;;;;;;;1.80;0.80;;;;;;;;;;5097469;28;20039;-81
2023/09/22 13:46:12;;;;;;;3.45;1.20;;;;;;;;;;5096543;28;20048;-81
2023/09/22 13:48:39;;;;;;;8.77;1.88;;;;;;;;;;5096451;28;20061;-81
2023/09/22 13:51:06;;;;;;;3.10;1.13;;;;;;;;;;5097365;28;20388;-81
2023/09/22 13:53:36;;;;;;;2.95;1.13;;;;;;;;;;5096544;28;20024;-81
2023/09/22 13:56:02;;;;;;;7.88;1.35;;;;;;;;;;5096373;28;20493;-81
2023/09/22 13:58:29;;;;;;;1.88;1.00;;;;;;;;;;5097585;28;20020;-82
2023/09/22 14:00:56;;;;;;;4.70;1.10;;;;;;;;;;5096970;28;20081;-80
2023/09/22 14:03:22;;;;;;;3.35;1.17;;;;;;;;;;5079794;28;20563;-81
2023/09/22 14:05:49;;;;;;;2.78;1.20;;;;;;;;;;5097546;28;20024;-82
2023/09/22 14:08:16;;;;;;;2.85;0.90;;;;;;;;;;5096051;28;20021;-82
2023/09/22 14:10:42;;;;;;;4.03;1.27;;;;;;;;;;5096311;28;20027;-82
2023/09/22 14:13:08;;;;;;;2.63;1.17;;;;;;;;;;5096291;28;20028;-81
2023/09/22 14:15:37;;;;;;;4.18;1.60;;;;;;;;;;5095307;28;20111;-81
2023/09/22 14:18:03;;;;;;;2.58;1.33;;;;;;;;;;5079743;28;20040;-81
2023/09/22 14:20:31;;;;;;;2.80;0.88;;;;;;;;;;5095753;28;20017;-82
2023/09/22 14:22:57;;;;;;;3.75;1.00;;;;;;;;;;5095698;28;20016;-81
2023/09/22 14:25:24;;;;;;;4.00;1.15;;;;;;;;;;5095944;28;20031;-81
2023/09/22 14:27:51;;;;;;;2.65;1.25;;;;;;;;;;5095437;28;20414;-82
2023/09/22 14:30:17;;;;;;;4.82;1.40;;;;;;;;;;5095772;28;20020;-82
2023/09/22 14:32:44;;;;;;;6.30;1.35;;;;;;;;;;5095693;28;20024;-82
2023/09/22 14:35:10;;;;;;;5.78;1.88;;;;;;;;;;5095702;28;20143;-83
2023/09/22 14:37:37;;;;;;;4.00;1.38;;;;;;;;;;5096208;28;20020;-82
2023/09/22 14:40:03;;;;;;;3.05;1.10;;;;;;;;;;5096562;28;20028;-83